PWSweather.com
Personal Weather Stations
Station Observations

SaroSE

Lat: 57.5222, Lon: 11.947

Elevation: 35

Station Type: Davis VP2

http://www.lokaltvader.se/

High Low Average
Temperature 61.0°F16.1°C 54.6°F12.6°C 56.8°F13.8°C
Dew Point 57.5°F14.2°C 53.1°F11.7°C 54.9°F12.7°C
Winds 13.8 mph 22.2 kmh 3.5 mph 5.6 kmh 9.0 mph SSE14.5 kmh SSE
Wind Gusts 19.6 mph31.5 kmh 6.9 mph11.1 kmh 12.0 mph19.3 kmh
Humidity 98% 84% 94%
Pressure 29.65 in1004.1 mb 29.45 in997.3 mb -
Precipitation 0.13 in3.3 mm - -
Hour Temp Dew Point Humidity Winds Wind Gusts Pressure Precip Precip Rate Daily Precip Total
12:00 AM 55.0°F12.8°C 54.2°F12.3°C 97% 6.9 mph SE11.1 kmh SE 9.2 mph14.8 kmh 29.65 in1004.1 mb - 0.00 in0.0 mm 0.00 in0.0 mm
12:15 AM 54.6°F12.6°C 53.8°F12.1°C 97% 6.9 mph SE11.1 kmh SE 8.1 mph13.0 kmh 29.65 in1004.1 mb - 0.00 in0.0 mm 0.00 in0.0 mm
12:30 AM 54.6°F12.6°C 53.8°F12.1°C 97% 8.1 mph SE13.0 kmh SE 10.4 mph16.7 kmh 29.65 in1004.1 mb - 0.00 in0.0 mm 0.00 in0.0 mm
12:45 AM 54.8°F12.7°C 54.0°F12.2°C 97% 8.1 mph SE13.0 kmh SE 9.2 mph14.8 kmh 29.65 in1004.1 mb - 0.00 in0.0 mm 0.00 in0.0 mm
01:00 AM 54.9°F12.7°C 54.1°F12.3°C 97% 6.9 mph SE11.1 kmh SE 9.2 mph14.8 kmh 29.65 in1004.1 mb - 0.00 in0.0 mm 0.00 in0.0 mm
01:15 AM 55.2°F12.9°C 54.4°F12.4°C 97% 8.1 mph SE13.0 kmh SE 9.2 mph14.8 kmh 29.65 in1004.1 mb - 0.00 in0.0 mm 0.00 in0.0 mm
01:30 AM 55.6°F13.1°C 54.8°F12.7°C 97% 10.4 mph SSE16.7 kmh SSE 11.5 mph18.5 kmh 29.64 in1003.7 mb - 0.00 in0.0 mm 0.00 in0.0 mm
01:45 AM 56.0°F13.3°C 55.4°F13.0°C 98% 10.4 mph SSE16.7 kmh SSE 11.5 mph18.5 kmh 29.64 in1003.7 mb - 0.00 in0.0 mm 0.00 in0.0 mm
02:00 AM 56.1°F13.4°C 55.3°F12.9°C 97% 8.1 mph SSE13.0 kmh SSE 10.4 mph16.7 kmh 29.64 in1003.7 mb - 0.00 in0.0 mm 0.00 in0.0 mm
02:15 AM 56.0°F13.3°C 55.2°F12.9°C 97% 6.9 mph S11.1 kmh S 11.5 mph18.5 kmh 29.64 in1003.7 mb - 0.00 in0.0 mm 0.00 in0.0 mm
02:30 AM 55.8°F13.2°C 55.0°F12.8°C 97% 6.9 mph SSE11.1 kmh SSE 9.2 mph14.8 kmh 29.63 in1003.4 mb - 0.00 in0.0 mm 0.00 in0.0 mm
02:45 AM 55.8°F13.2°C 55.0°F12.8°C 97% 4.6 mph SE7.4 kmh SE 8.1 mph13.0 kmh 29.63 in1003.4 mb - 0.00 in0.0 mm 0.00 in0.0 mm
03:00 AM 55.7°F13.2°C 54.9°F12.7°C 97% 8.1 mph SE13.0 kmh SE 9.2 mph14.8 kmh 29.63 in1003.4 mb - 0.00 in0.0 mm 0.00 in0.0 mm
03:15 AM 55.5°F13.1°C 54.7°F12.6°C 97% 9.2 mph SE14.8 kmh SE 10.4 mph16.7 kmh 29.63 in1003.4 mb - 0.00 in0.0 mm 0.00 in0.0 mm
03:30 AM 55.7°F13.2°C 54.9°F12.7°C 97% 8.1 mph SE13.0 kmh SE 10.4 mph16.7 kmh 29.63 in1003.4 mb - 0.00 in0.0 mm 0.00 in0.0 mm
03:45 AM 55.8°F13.2°C 55.0°F12.8°C 97% 6.9 mph SE11.1 kmh SE 10.4 mph16.7 kmh 29.62 in1003.0 mb - 0.00 in0.0 mm 0.00 in0.0 mm
04:00 AM 56.0°F13.3°C 55.4°F13.0°C 98% 6.9 mph SE11.1 kmh SE 9.2 mph14.8 kmh 29.62 in1003.0 mb - 0.00 in0.0 mm 0.00 in0.0 mm
04:15 AM 56.1°F13.4°C 55.5°F13.1°C 98% 11.5 mph SE18.5 kmh SE 11.5 mph18.5 kmh 29.62 in1003.0 mb - 0.00 in0.0 mm 0.00 in0.0 mm
04:30 AM 56.0°F13.3°C 55.5°F13.1°C 98% 10.4 mph SE16.7 kmh SE 13.8 mph22.2 kmh 29.61 in1002.7 mb - 0.00 in0.0 mm 0.00 in0.0 mm
04:45 AM 55.9°F13.3°C 55.4°F13.0°C 98% 12.7 mph SE20.4 kmh SE 13.8 mph22.2 kmh 29.61 in1002.7 mb - 0.00 in0.0 mm 0.00 in0.0 mm
05:00 AM 55.7°F13.2°C 54.9°F12.7°C 97% 10.4 mph SE16.7 kmh SE 18.4 mph29.6 kmh 29.61 in1002.7 mb - 0.00 in0.0 mm 0.00 in0.0 mm
05:15 AM 55.5°F13.1°C 54.9°F12.7°C 98% 3.5 mph SE5.6 kmh SE 10.4 mph16.7 kmh 29.61 in1002.7 mb - 0.00 in0.0 mm 0.00 in0.0 mm
05:30 AM 55.4°F13.0°C 54.8°F12.7°C 98% 9.2 mph SE14.8 kmh SE 15.0 mph24.1 kmh 29.61 in1002.7 mb - 0.00 in0.0 mm 0.00 in0.0 mm
05:45 AM 55.2°F12.9°C 54.4°F12.4°C 97% 9.2 mph SE14.8 kmh SE 16.1 mph25.9 kmh 29.60 in1002.4 mb - 0.00 in0.0 mm 0.00 in0.0 mm
06:00 AM 55.0°F12.8°C 54.2°F12.3°C 97% 6.9 mph ESE11.1 kmh ESE 11.5 mph18.5 kmh 29.59 in1002.0 mb - 0.00 in0.0 mm 0.00 in0.0 mm
06:15 AM 54.8°F12.7°C 54.0°F12.2°C 97% 9.2 mph SE14.8 kmh SE 12.7 mph20.4 kmh 29.60 in1002.4 mb - 0.00 in0.0 mm 0.00 in0.0 mm
06:30 AM 54.7°F12.6°C 53.9°F12.2°C 97% 11.5 mph SE18.5 kmh SE 12.7 mph20.4 kmh 29.60 in1002.4 mb - 0.00 in0.0 mm 0.00 in0.0 mm
06:45 AM 54.8°F12.7°C 54.0°F12.2°C 97% 9.2 mph SE14.8 kmh SE 13.8 mph22.2 kmh 29.60 in1002.4 mb - 0.00 in0.0 mm 0.00 in0.0 mm
07:00 AM 54.9°F12.7°C 54.1°F12.3°C 97% 10.4 mph SE16.7 kmh SE 10.4 mph16.7 kmh 29.59 in1002.0 mb - 0.03 in0.8 mm 0.03 in0.8 mm
07:15 AM 54.9°F12.7°C 54.1°F12.3°C 97% 12.7 mph SE20.4 kmh SE 13.8 mph22.2 kmh 29.59 in1002.0 mb - 0.03 in0.8 mm 0.03 in0.8 mm
07:30 AM 54.9°F12.7°C 54.1°F12.3°C 97% 8.1 mph SE13.0 kmh SE 11.5 mph18.5 kmh 29.59 in1002.0 mb - 0.06 in1.5 mm 0.06 in1.5 mm
07:45 AM 54.9°F12.7°C 54.1°F12.3°C 97% 11.5 mph SE18.5 kmh SE 12.7 mph20.4 kmh 29.59 in1002.0 mb - 0.09 in2.3 mm 0.09 in2.3 mm
08:00 AM 54.9°F12.7°C 54.1°F12.3°C 97% 10.4 mph SE16.7 kmh SE 11.5 mph18.5 kmh 29.59 in1002.0 mb - 0.07 in1.8 mm 0.09 in2.3 mm
08:15 AM 55.1°F12.8°C 54.3°F12.4°C 97% 9.2 mph SE14.8 kmh SE 15.0 mph24.1 kmh 29.59 in1002.0 mb - 0.06 in1.5 mm 0.09 in2.3 mm
08:30 AM 55.4°F13.0°C 54.6°F12.6°C 97% 12.7 mph SE20.4 kmh SE 13.8 mph22.2 kmh 29.59 in1002.0 mb - 0.04 in1.0 mm 0.09 in2.3 mm
08:45 AM 55.8°F13.2°C 55.0°F12.8°C 97% 9.2 mph SSE14.8 kmh SSE 11.5 mph18.5 kmh 29.60 in1002.4 mb - 0.02 in0.5 mm 0.09 in2.3 mm
09:00 AM 56.7°F13.7°C 56.1°F13.4°C 98% 5.8 mph S9.3 kmh S 6.9 mph11.1 kmh 29.60 in1002.4 mb - 0.00 in0.0 mm 0.09 in2.3 mm
09:15 AM 57.5°F14.2°C 57.0°F13.9°C 98% 6.9 mph S11.1 kmh S 9.2 mph14.8 kmh 29.60 in1002.4 mb - 0.00 in0.0 mm 0.09 in2.3 mm
09:30 AM 57.6°F14.2°C 56.7°F13.7°C 97% 6.9 mph S11.1 kmh S 9.2 mph14.8 kmh 29.60 in1002.4 mb - 0.00 in0.0 mm 0.09 in2.3 mm
09:45 AM 56.9°F13.8°C 56.1°F13.4°C 97% 5.8 mph S9.3 kmh S 6.9 mph11.1 kmh 29.60 in1002.4 mb - 0.00 in0.0 mm 0.09 in2.3 mm
10:00 AM 57.4°F14.1°C 56.6°F13.7°C 97% 6.9 mph S11.1 kmh S 10.4 mph16.7 kmh 29.61 in1002.7 mb - 0.00 in0.0 mm 0.09 in2.3 mm
10:15 AM 58.3°F14.6°C 57.5°F14.2°C 97% 8.1 mph SW13.0 kmh SW 10.4 mph16.7 kmh 29.61 in1002.7 mb - 0.00 in0.0 mm 0.09 in2.3 mm
10:30 AM 57.6°F14.2°C 56.5°F13.6°C 96% 11.5 mph S18.5 kmh S 12.7 mph20.4 kmh 29.61 in1002.7 mb - 0.00 in0.0 mm 0.09 in2.3 mm
10:45 AM 58.2°F14.6°C 56.8°F13.8°C 95% 10.4 mph S16.7 kmh S 11.5 mph18.5 kmh 29.61 in1002.7 mb - 0.00 in0.0 mm 0.09 in2.3 mm
11:00 AM 58.6°F14.8°C 56.9°F13.8°C 94% 8.1 mph SSW13.0 kmh SSW 15.0 mph24.1 kmh 29.62 in1003.0 mb - 0.00 in0.0 mm 0.09 in2.3 mm
11:15 AM 58.7°F14.8°C 56.7°F13.7°C 93% 6.9 mph S11.1 kmh S 11.5 mph18.5 kmh 29.61 in1002.7 mb - 0.00 in0.0 mm 0.09 in2.3 mm
11:30 AM 59.2°F15.1°C 56.9°F13.8°C 92% 10.4 mph S16.7 kmh S 11.5 mph18.5 kmh 29.61 in1002.7 mb - 0.00 in0.0 mm 0.09 in2.3 mm
11:45 AM 59.9°F15.5°C 57.0°F13.9°C 90% 8.1 mph S13.0 kmh S 11.5 mph18.5 kmh 29.61 in1002.7 mb - 0.00 in0.0 mm 0.09 in2.3 mm
12:00 PM 59.4°F15.2°C 56.2°F13.4°C 89% 11.5 mph SSW18.5 kmh SSW 19.6 mph31.5 kmh 29.61 in1002.7 mb - 0.00 in0.0 mm 0.09 in2.3 mm
12:15 PM 59.7°F15.4°C 56.8°F13.8°C 90% 9.2 mph S14.8 kmh S 15.0 mph24.1 kmh 29.61 in1002.7 mb - 0.00 in0.0 mm 0.09 in2.3 mm
12:30 PM 60.4°F15.8°C 56.8°F13.8°C 88% 8.1 mph SSW13.0 kmh SSW 12.7 mph20.4 kmh 29.61 in1002.7 mb - 0.00 in0.0 mm 0.09 in2.3 mm
12:45 PM 60.7°F15.9°C 56.5°F13.6°C 86% 12.7 mph S20.4 kmh S 15.0 mph24.1 kmh 29.61 in1002.7 mb - 0.00 in0.0 mm 0.09 in2.3 mm
01:00 PM 60.2°F15.7°C 56.0°F13.3°C 86% 11.5 mph SSW18.5 kmh SSW 13.8 mph22.2 kmh 29.61 in1002.7 mb - 0.00 in0.0 mm 0.09 in2.3 mm
01:15 PM 61.0°F16.1°C 56.5°F13.6°C 85% 13.8 mph S22.2 kmh S 18.4 mph29.6 kmh 29.61 in1002.7 mb - 0.00 in0.0 mm 0.09 in2.3 mm
01:30 PM 60.9°F16.1°C 56.0°F13.3°C 84% 13.8 mph S22.2 kmh S 16.1 mph25.9 kmh 29.61 in1002.7 mb - 0.00 in0.0 mm 0.09 in2.3 mm
01:45 PM 59.8°F15.4°C 55.3°F12.9°C 85% 9.2 mph SSW14.8 kmh SSW 10.4 mph16.7 kmh 29.61 in1002.7 mb - 0.00 in0.0 mm 0.09 in2.3 mm
02:00 PM 59.8°F15.4°C 55.6°F13.1°C 86% 9.2 mph S14.8 kmh S 10.4 mph16.7 kmh 29.61 in1002.7 mb - 0.00 in0.0 mm 0.09 in2.3 mm
02:15 PM 59.3°F15.2°C 55.4°F13.0°C 87% 6.9 mph S11.1 kmh S 11.5 mph18.5 kmh 29.61 in1002.7 mb - 0.00 in0.0 mm 0.09 in2.3 mm
02:30 PM 60.2°F15.7°C 56.6°F13.7°C 88% 6.9 mph S11.1 kmh S 11.5 mph18.5 kmh 29.60 in1002.4 mb - 0.00 in0.0 mm 0.09 in2.3 mm
02:45 PM 60.1°F15.6°C 56.2°F13.4°C 87% 8.1 mph S13.0 kmh S 11.5 mph18.5 kmh 29.60 in1002.4 mb - 0.00 in0.0 mm 0.09 in2.3 mm
03:00 PM 59.8°F15.4°C 55.6°F13.1°C 86% 11.5 mph S18.5 kmh S 15.0 mph24.1 kmh 29.60 in1002.4 mb - 0.00 in0.0 mm 0.09 in2.3 mm
03:15 PM 59.5°F15.3°C 55.6°F13.1°C 87% 9.2 mph S14.8 kmh S 11.5 mph18.5 kmh 29.60 in1002.4 mb - 0.00 in0.0 mm 0.09 in2.3 mm
03:30 PM 59.2°F15.1°C 55.6°F13.1°C 88% 12.7 mph S20.4 kmh S 18.4 mph29.6 kmh 29.59 in1002.0 mb - 0.00 in0.0 mm 0.09 in2.3 mm
03:45 PM 58.8°F14.9°C 55.6°F13.1°C 89% 10.4 mph S16.7 kmh S 16.1 mph25.9 kmh 29.59 in1002.0 mb - 0.00 in0.0 mm 0.09 in2.3 mm
04:00 PM 58.8°F14.9°C 55.9°F13.3°C 90% 8.1 mph S13.0 kmh S 10.4 mph16.7 kmh 29.58 in1001.7 mb - 0.00 in0.0 mm 0.09 in2.3 mm
04:15 PM 59.2°F15.1°C 55.9°F13.3°C 89% 8.1 mph S13.0 kmh S 10.4 mph16.7 kmh 29.58 in1001.7 mb - 0.00 in0.0 mm 0.09 in2.3 mm
04:30 PM 58.3°F14.6°C 55.0°F12.8°C 89% 8.1 mph S13.0 kmh S 11.5 mph18.5 kmh 29.58 in1001.7 mb - 0.00 in0.0 mm 0.09 in2.3 mm
04:45 PM 58.0°F14.4°C 54.8°F12.7°C 89% 6.9 mph S11.1 kmh S 8.1 mph13.0 kmh 29.58 in1001.7 mb - 0.00 in0.0 mm 0.09 in2.3 mm
05:00 PM 57.7°F14.3°C 54.5°F12.5°C 89% 5.8 mph S9.3 kmh S 9.2 mph14.8 kmh 29.58 in1001.7 mb - 0.00 in0.0 mm 0.09 in2.3 mm
05:15 PM 57.5°F14.2°C 54.6°F12.6°C 90% 8.1 mph S13.0 kmh S 10.4 mph16.7 kmh 29.57 in1001.4 mb - 0.00 in0.0 mm 0.09 in2.3 mm
05:30 PM 57.3°F14.1°C 54.4°F12.4°C 90% 4.6 mph S7.4 kmh S 11.5 mph18.5 kmh 29.57 in1001.4 mb - 0.00 in0.0 mm 0.09 in2.3 mm
05:45 PM 57.1°F13.9°C 54.5°F12.5°C 91% 5.8 mph SSE9.3 kmh SSE 8.1 mph13.0 kmh 29.57 in1001.4 mb - 0.00 in0.0 mm 0.09 in2.3 mm
06:00 PM 56.9°F13.8°C 54.3°F12.4°C 91% 5.8 mph SSE9.3 kmh SSE 8.1 mph13.0 kmh 29.57 in1001.4 mb - 0.00 in0.0 mm 0.09 in2.3 mm
06:15 PM 56.8°F13.8°C 54.5°F12.5°C 92% 5.8 mph SSE9.3 kmh SSE 9.2 mph14.8 kmh 29.57 in1001.4 mb - 0.00 in0.0 mm 0.09 in2.3 mm
06:30 PM 56.7°F13.7°C 54.4°F12.4°C 92% 6.9 mph SE11.1 kmh SE 9.2 mph14.8 kmh 29.57 in1001.4 mb - 0.00 in0.0 mm 0.09 in2.3 mm
06:45 PM 56.6°F13.7°C 54.6°F12.6°C 93% 6.9 mph SSE11.1 kmh SSE 8.1 mph13.0 kmh 29.56 in1001.0 mb - 0.00 in0.0 mm 0.09 in2.3 mm
07:00 PM 56.2°F13.4°C 53.9°F12.2°C 92% 8.1 mph S13.0 kmh S 11.5 mph18.5 kmh 29.55 in1000.7 mb - 0.00 in0.0 mm 0.09 in2.3 mm
07:15 PM 55.6°F13.1°C 53.3°F11.8°C 92% 9.2 mph S14.8 kmh S 16.1 mph25.9 kmh 29.56 in1001.0 mb - 0.00 in0.0 mm 0.09 in2.3 mm
07:30 PM 55.6°F13.1°C 53.3°F11.8°C 92% 8.1 mph S13.0 kmh S 9.2 mph14.8 kmh 29.55 in1000.7 mb - 0.00 in0.0 mm 0.09 in2.3 mm
07:45 PM 55.8°F13.2°C 53.2°F11.8°C 91% 8.1 mph SSE13.0 kmh SSE 8.1 mph13.0 kmh 29.55 in1000.7 mb - 0.00 in0.0 mm 0.09 in2.3 mm
08:00 PM 55.9°F13.3°C 53.3°F11.8°C 91% 10.4 mph SSE16.7 kmh SSE 11.5 mph18.5 kmh 29.54 in1000.3 mb - 0.00 in0.0 mm 0.09 in2.3 mm
08:15 PM 56.1°F13.4°C 53.5°F11.9°C 91% 8.1 mph SSE13.0 kmh SSE 18.4 mph29.6 kmh 29.54 in1000.3 mb - 0.00 in0.0 mm 0.09 in2.3 mm
08:30 PM 56.2°F13.4°C 53.6°F12.0°C 91% 10.4 mph SSE16.7 kmh SSE 13.8 mph22.2 kmh 29.53 in1000.0 mb - 0.00 in0.0 mm 0.09 in2.3 mm
08:45 PM 56.2°F13.4°C 53.3°F11.8°C 90% 11.5 mph S18.5 kmh S 18.4 mph29.6 kmh 29.52 in999.7 mb - 0.00 in0.0 mm 0.09 in2.3 mm
09:00 PM 55.9°F13.3°C 53.3°F11.8°C 91% 12.7 mph SSE20.4 kmh SSE 13.8 mph22.2 kmh 29.52 in999.7 mb - 0.02 in0.5 mm 0.11 in2.8 mm
09:15 PM 55.4°F13.0°C 53.4°F11.9°C 93% 9.2 mph SE14.8 kmh SE 11.5 mph18.5 kmh 29.51 in999.3 mb - 0.02 in0.5 mm 0.11 in2.8 mm
09:30 PM 55.1°F12.8°C 53.1°F11.7°C 93% 11.5 mph SE18.5 kmh SE 15.0 mph24.1 kmh 29.51 in999.3 mb - 0.02 in0.5 mm 0.11 in2.8 mm
09:45 PM 55.1°F12.8°C 53.4°F11.9°C 94% 11.5 mph SE18.5 kmh SE 15.0 mph24.1 kmh 29.50 in999.0 mb - 0.02 in0.5 mm 0.11 in2.8 mm
10:00 PM 55.4°F13.0°C 53.7°F12.1°C 94% 9.2 mph SE14.8 kmh SE 13.8 mph22.2 kmh 29.49 in998.6 mb - 0.01 in0.3 mm 0.12 in3.0 mm
10:15 PM 55.6°F13.1°C 54.2°F12.3°C 95% 9.2 mph SE14.8 kmh SE 18.4 mph29.6 kmh 29.49 in998.6 mb - 0.02 in0.5 mm 0.13 in3.3 mm
10:30 PM 55.6°F13.1°C 54.2°F12.3°C 95% 11.5 mph SE18.5 kmh SE 15.0 mph24.1 kmh 29.48 in998.3 mb - 0.02 in0.5 mm 0.13 in3.3 mm
10:45 PM 55.4°F13.0°C 54.0°F12.2°C 95% 11.5 mph SE18.5 kmh SE 15.0 mph24.1 kmh 29.47 in998.0 mb - 0.02 in0.5 mm 0.13 in3.3 mm
11:00 PM 55.2°F12.9°C 53.8°F12.1°C 95% 12.7 mph SE20.4 kmh SE 15.0 mph24.1 kmh 29.47 in998.0 mb - 0.01 in0.3 mm 0.56 in14.2 mm
11:15 PM 55.1°F12.8°C 53.7°F12.1°C 95% 10.4 mph SE16.7 kmh SE 17.3 mph27.8 kmh 29.46 in997.6 mb - 0.00 in0.0 mm 0.56 in14.2 mm
11:30 PM 55.2°F12.9°C 53.8°F12.1°C 95% 10.4 mph SE16.7 kmh SE 11.5 mph18.5 kmh 29.46 in997.6 mb - 0.02 in0.5 mm 0.02 in0.5 mm
11:45 PM 55.2°F12.9°C 54.1°F12.3°C 96% 8.1 mph SSE13.0 kmh SSE 12.7 mph20.4 kmh 29.45 in997.3 mb - 0.08 in2.0 mm 0.08 in2.0 mm